sensor_id;sensor_type;location;lat;lon;timestamp;pressure;altitude;pressure_sealevel;temperature;humidity
70343;BME280;57767;42.068;24.752;2023-03-03T00:01:04;99180.69;;;4.73;91.56
70343;BME280;57767;42.068;24.752;2023-03-03T00:02:06;99190.19;;;4.82;90.89
70343;BME280;57767;42.068;24.752;2023-03-03T00:03:09;99186.28;;;4.78;90.83
70343;BME280;57767;42.068;24.752;2023-03-03T00:04:12;99173.84;;;4.72;91.02
70343;BME280;57767;42.068;24.752;2023-03-03T00:05:14;99173.69;;;4.74;90.94
70343;BME280;57767;42.068;24.752;2023-03-03T00:06:19;99170.09;;;4.66;90.87
70343;BME280;57767;42.068;24.752;2023-03-03T00:07:21;99165.50;;;4.52;91.24
70343;BME280;57767;42.068;24.752;2023-03-03T00:08:24;99175.28;;;4.58;91.76
70343;BME280;57767;42.068;24.752;2023-03-03T00:09:26;99169.59;;;4.63;91.39
70343;BME280;57767;42.068;24.752;2023-03-03T00:10:28;99181.03;;;4.78;91.85
70343;BME280;57767;42.068;24.752;2023-03-03T00:11:30;99179.56;;;4.84;91.03
70343;BME280;57767;42.068;24.752;2023-03-03T00:12:33;99174.31;;;4.84;90.99
70343;BME280;57767;42.068;24.752;2023-03-03T00:13:45;99174.00;;;4.87;90.81
70343;BME280;57767;42.068;24.752;2023-03-03T00:14:47;99166.31;;;4.85;90.73
70343;BME280;57767;42.068;24.752;2023-03-03T00:15:50;99171.72;;;4.92;90.85
70343;BME280;57767;42.068;24.752;2023-03-03T00:16:53;99159.94;;;4.88;90.32
70343;BME280;57767;42.068;24.752;2023-03-03T00:17:56;99160.91;;;4.95;90.33
70343;BME280;57767;42.068;24.752;2023-03-03T00:18:58;99156.00;;;5.00;90.15
70343;BME280;57767;42.068;24.752;2023-03-03T00:21:50;99154.72;;;4.88;89.67
70343;BME280;57767;42.068;24.752;2023-03-03T00:22:52;99150.94;;;4.82;90.12
70343;BME280;57767;42.068;24.752;2023-03-03T00:26:30;99146.22;;;4.86;90.29
70343;BME280;57767;42.068;24.752;2023-03-03T00:27:35;99140.50;;;4.90;90.27
70343;BME280;57767;42.068;24.752;2023-03-03T00:28:45;99142.94;;;5.00;89.95
70343;BME280;57767;42.068;24.752;2023-03-03T00:29:52;99144.91;;;5.06;90.06
70343;BME280;57767;42.068;24.752;2023-03-03T00:30:58;99141.28;;;5.07;90.18
70343;BME280;57767;42.068;24.752;2023-03-03T00:32:21;99128.88;;;5.01;89.15
70343;BME280;57767;42.068;24.752;2023-03-03T00:33:26;99136.22;;;5.06;89.92
70343;BME280;57767;42.068;24.752;2023-03-03T00:34:33;99132.13;;;5.03;89.81
70343;BME280;57767;42.068;24.752;2023-03-03T00:35:36;99129.50;;;5.11;89.15
70343;BME280;57767;42.068;24.752;2023-03-03T00:36:40;99132.13;;;5.11;88.99
70343;BME280;57767;42.068;24.752;2023-03-03T00:37:42;99133.63;;;5.06;89.34
70343;BME280;57767;42.068;24.752;2023-03-03T00:38:44;99129.19;;;4.98;89.46
70343;BME280;57767;42.068;24.752;2023-03-03T00:39:47;99123.13;;;4.97;89.79
70343;BME280;57767;42.068;24.752;2023-03-03T00:40:49;99126.06;;;4.94;89.28
70343;BME280;57767;42.068;24.752;2023-03-03T00:41:51;99128.69;;;4.94;89.47
70343;BME280;57767;42.068;24.752;2023-03-03T00:42:55;99124.28;;;4.95;89.94
70343;BME280;57767;42.068;24.752;2023-03-03T00:43:58;99113.50;;;4.90;89.28
70343;BME280;57767;42.068;24.752;2023-03-03T00:45:00;99113.50;;;4.98;89.54
70343;BME280;57767;42.068;24.752;2023-03-03T00:46:02;99112.66;;;4.97;89.85
70343;BME280;57767;42.068;24.752;2023-03-03T00:48:57;99119.88;;;4.95;89.55
70343;BME280;57767;42.068;24.752;2023-03-03T00:51:32;99117.09;;;4.89;89.50
70343;BME280;57767;42.068;24.752;2023-03-03T00:52:38;99117.75;;;4.91;89.09
70343;BME280;57767;42.068;24.752;2023-03-03T00:53:40;99112.03;;;4.87;89.83
70343;BME280;57767;42.068;24.752;2023-03-03T00:54:41;99106.97;;;4.78;89.72
70343;BME280;57767;42.068;24.752;2023-03-03T00:55:45;99102.22;;;4.73;89.71
70343;BME280;57767;42.068;24.752;2023-03-03T00:56:47;99104.69;;;4.75;89.99
70343;BME280;57767;42.068;24.752;2023-03-03T00:57:48;99106.66;;;4.81;89.29
70343;BME280;57767;42.068;24.752;2023-03-03T00:58:50;99105.50;;;4.83;89.74
70343;BME280;57767;42.068;24.752;2023-03-03T00:59:52;99105.66;;;4.90;89.72
70343;BME280;57767;42.068;24.752;2023-03-03T01:00:54;99096.19;;;4.81;89.65
70343;BME280;57767;42.068;24.752;2023-03-03T01:01:59;99107.28;;;4.91;89.12
70343;BME280;57767;42.068;24.752;2023-03-03T01:03:03;99097.50;;;4.93;89.55
70343;BME280;57767;42.068;24.752;2023-03-03T01:04:06;99099.44;;;4.99;88.99
70343;BME280;57767;42.068;24.752;2023-03-03T01:05:09;99102.84;;;4.99;89.01
70343;BME280;57767;42.068;24.752;2023-03-03T01:06:12;99099.75;;;4.96;89.04
70343;BME280;57767;42.068;24.752;2023-03-03T01:07:14;99102.53;;;4.94;89.28
70343;BME280;57767;42.068;24.752;2023-03-03T01:08:16;99107.47;;;4.81;88.94
70343;BME280;57767;42.068;24.752;2023-03-03T01:09:19;99102.41;;;4.80;88.68
70343;BME280;57767;42.068;24.752;2023-03-03T01:10:21;99102.06;;;4.75;89.36
70343;BME280;57767;42.068;24.752;2023-03-03T01:11:25;99097.50;;;4.77;88.84
70343;BME280;57767;42.068;24.752;2023-03-03T01:12:29;99094.88;;;4.77;89.12
70343;BME280;57767;42.068;24.752;2023-03-03T01:13:33;99098.31;;;4.77;89.22
70343;BME280;57767;42.068;24.752;2023-03-03T01:14:38;99101.88;;;4.84;89.12
70343;BME280;57767;42.068;24.752;2023-03-03T01:15:40;99092.25;;;4.85;88.86
70343;BME280;57767;42.068;24.752;2023-03-03T01:16:42;99094.38;;;4.73;88.69
70343;BME280;57767;42.068;24.752;2023-03-03T01:17:44;99093.41;;;4.66;88.40
70343;BME280;57767;42.068;24.752;2023-03-03T01:18:46;99103.53;;;4.77;88.39
70343;BME280;57767;42.068;24.752;2023-03-03T01:19:48;99100.09;;;4.85;89.24
70343;BME280;57767;42.068;24.752;2023-03-03T01:20:49;99103.22;;;4.88;88.76
70343;BME280;57767;42.068;24.752;2023-03-03T01:21:51;99106.66;;;4.81;88.57
70343;BME280;57767;42.068;24.752;2023-03-03T01:22:53;99100.59;;;4.80;88.90
70343;BME280;57767;42.068;24.752;2023-03-03T01:23:55;99103.38;;;4.79;88.27
70343;BME280;57767;42.068;24.752;2023-03-03T01:24:56;99106.66;;;4.73;89.32
70343;BME280;57767;42.068;24.752;2023-03-03T01:26:00;99105.34;;;4.77;88.96
70343;BME280;57767;42.068;24.752;2023-03-03T01:27:02;99104.69;;;4.75;88.83
70343;BME280;57767;42.068;24.752;2023-03-03T01:28:04;99097.81;;;4.74;88.80
70343;BME280;57767;42.068;24.752;2023-03-03T01:29:06;99103.38;;;4.71;88.65
70343;BME280;57767;42.068;24.752;2023-03-03T01:30:08;99104.03;;;4.73;88.73
70343;BME280;57767;42.068;24.752;2023-03-03T01:31:10;99093.56;;;4.73;88.78
70343;BME280;57767;42.068;24.752;2023-03-03T01:32:13;99095.38;;;4.72;88.40
70343;BME280;57767;42.068;24.752;2023-03-03T01:33:16;99096.84;;;4.75;88.19
70343;BME280;57767;42.068;24.752;2023-03-03T01:34:17;99089.47;;;4.70;89.03
70343;BME280;57767;42.068;24.752;2023-03-03T01:35:19;99102.75;;;4.68;88.82
70343;BME280;57767;42.068;24.752;2023-03-03T01:36:25;99102.88;;;4.75;88.90
70343;BME280;57767;42.068;24.752;2023-03-03T01:37:27;99105.03;;;4.80;88.79
70343;BME280;57767;42.068;24.752;2023-03-03T01:38:29;99105.50;;;4.75;88.12
70343;BME280;57767;42.068;24.752;2023-03-03T01:39:31;99093.88;;;4.69;88.39
70343;BME280;57767;42.068;24.752;2023-03-03T01:40:33;99096.84;;;4.66;87.98
70343;BME280;57767;42.068;24.752;2023-03-03T01:41:34;99102.06;;;4.75;87.95
70343;BME280;57767;42.068;24.752;2023-03-03T01:42:36;99095.88;;;4.67;88.92
70343;BME280;57767;42.068;24.752;2023-03-03T01:43:46;99099.78;;;4.63;88.73
70343;BME280;57767;42.068;24.752;2023-03-03T01:44:48;99105.34;;;4.60;88.77
70343;BME280;57767;42.068;24.752;2023-03-03T01:47:03;99092.59;;;4.57;89.40
70343;BME280;57767;42.068;24.752;2023-03-03T01:48:11;99095.88;;;4.67;88.94
70343;BME280;57767;42.068;24.752;2023-03-03T01:50:09;99095.53;;;4.62;89.01
70343;BME280;57767;42.068;24.752;2023-03-03T01:51:56;99088.50;;;4.63;89.58
70343;BME280;57767;42.068;24.752;2023-03-03T01:53:01;99086.72;;;4.55;89.53
70343;BME280;57767;42.068;24.752;2023-03-03T01:54:16;99083.44;;;4.53;88.64
70343;BME280;57767;42.068;24.752;2023-03-03T01:55:21;99083.09;;;4.56;89.10
70343;BME280;57767;42.068;24.752;2023-03-03T01:56:24;99077.56;;;4.59;88.73
70343;BME280;57767;42.068;24.752;2023-03-03T01:57:32;99083.78;;;4.66;88.74
70343;BME280;57767;42.068;24.752;2023-03-03T01:58:52;99082.44;;;4.71;89.09
70343;BME280;57767;42.068;24.752;2023-03-03T01:59:57;99071.34;;;4.60;89.06
70343;BME280;57767;42.068;24.752;2023-03-03T02:01:04;99075.56;;;4.69;88.82
70343;BME280;57767;42.068;24.752;2023-03-03T02:02:07;99070.69;;;4.66;88.38
70343;BME280;57767;42.068;24.752;2023-03-03T02:03:09;99076.06;;;4.73;88.61
70343;BME280;57767;42.068;24.752;2023-03-03T02:04:12;99070.69;;;4.75;88.45
70343;BME280;57767;42.068;24.752;2023-03-03T02:05:15;99071.66;;;4.74;88.04
70343;BME280;57767;42.068;24.752;2023-03-03T02:06:19;99074.28;;;4.74;87.60
70343;BME280;57767;42.068;24.752;2023-03-03T02:07:24;99078.03;;;4.71;87.46
70343;BME280;57767;42.068;24.752;2023-03-03T02:08:33;99066.13;;;4.60;87.38
70343;BME280;57767;42.068;24.752;2023-03-03T02:10:55;99066.44;;;4.65;87.70
70343;BME280;57767;42.068;24.752;2023-03-03T02:12:02;99068.41;;;4.63;88.20
70343;BME280;57767;42.068;24.752;2023-03-03T02:13:06;99069.88;;;4.66;88.04
70343;BME280;57767;42.068;24.752;2023-03-03T02:14:10;99073.63;;;4.63;88.20
70343;BME280;57767;42.068;24.752;2023-03-03T02:16:20;99069.38;;;4.62;88.17
70343;BME280;57767;42.068;24.752;2023-03-03T02:17:22;99076.09;;;4.65;88.31
70343;BME280;57767;42.068;24.752;2023-03-03T02:18:24;99078.38;;;4.60;87.94
70343;BME280;57767;42.068;24.752;2023-03-03T02:21:54;99049.47;;;4.53;88.35
70343;BME280;57767;42.068;24.752;2023-03-03T02:23:03;99072.00;;;4.62;88.70
70343;BME280;57767;42.068;24.752;2023-03-03T02:24:56;99070.53;;;4.68;88.80
70343;BME280;57767;42.068;24.752;2023-03-03T02:26:59;99065.81;;;4.55;88.49
70343;BME280;57767;42.068;24.752;2023-03-03T02:28:02;99060.06;;;4.52;88.33
70343;BME280;57767;42.068;24.752;2023-03-03T02:29:04;99066.94;;;4.53;88.14
70343;BME280;57767;42.068;24.752;2023-03-03T02:30:22;99064.16;;;4.54;88.28
70343;BME280;57767;42.068;24.752;2023-03-03T02:31:27;99076.25;;;4.55;88.27
70343;BME280;57767;42.068;24.752;2023-03-03T02:32:29;99064.50;;;4.51;88.67
70343;BME280;57767;42.068;24.752;2023-03-03T02:33:31;99065.28;;;4.60;88.29
70343;BME280;57767;42.068;24.752;2023-03-03T02:34:51;99058.13;;;4.54;88.95
70343;BME280;57767;42.068;24.752;2023-03-03T02:35:53;99057.59;;;4.58;88.32
70343;BME280;57767;42.068;24.752;2023-03-03T02:36:55;99062.03;;;4.58;88.78
70343;BME280;57767;42.068;24.752;2023-03-03T02:38:03;99050.44;;;4.52;88.92
70343;BME280;57767;42.068;24.752;2023-03-03T02:40:12;99062.34;;;4.63;88.64
70343;BME280;57767;42.068;24.752;2023-03-03T02:41:28;99063.34;;;4.62;88.49
70343;BME280;57767;42.068;24.752;2023-03-03T02:42:31;99064.31;;;4.61;88.85
70343;BME280;57767;42.068;24.752;2023-03-03T02:44:07;99066.13;;;4.68;88.44
70343;BME280;57767;42.068;24.752;2023-03-03T02:45:10;99057.63;;;4.66;88.90
70343;BME280;57767;42.068;24.752;2023-03-03T02:46:12;99056.31;;;4.62;88.95
70343;BME280;57767;42.068;24.752;2023-03-03T02:47:13;99062.84;;;4.66;88.50
70343;BME280;57767;42.068;24.752;2023-03-03T02:48:15;99050.75;;;4.65;88.71
70343;BME280;57767;42.068;24.752;2023-03-03T02:49:25;99056.31;;;4.62;88.25
70343;BME280;57767;42.068;24.752;2023-03-03T02:50:27;99059.59;;;4.64;88.46
70343;BME280;57767;42.068;24.752;2023-03-03T02:51:29;99056.31;;;4.62;87.97
70343;BME280;57767;42.068;24.752;2023-03-03T02:52:30;99054.50;;;4.63;88.53
70343;BME280;57767;42.068;24.752;2023-03-03T02:53:32;99064.66;;;4.66;87.83
70343;BME280;57767;42.068;24.752;2023-03-03T02:54:34;99070.69;;;4.75;87.88
70343;BME280;57767;42.068;24.752;2023-03-03T02:55:36;99050.75;;;4.65;88.15
70343;BME280;57767;42.068;24.752;2023-03-03T02:56:38;99069.06;;;4.65;87.15
70343;BME280;57767;42.068;24.752;2023-03-03T02:57:40;99065.44;;;4.58;87.14
70343;BME280;57767;42.068;24.752;2023-03-03T02:58:41;99070.38;;;4.61;87.82
70343;BME280;57767;42.068;24.752;2023-03-03T02:59:43;99069.06;;;4.65;87.15
70343;BME280;57767;42.068;24.752;2023-03-03T03:00:45;99075.44;;;4.63;87.77
70343;BME280;57767;42.068;24.752;2023-03-03T03:01:50;99069.88;;;4.66;87.15
70343;BME280;57767;42.068;24.752;2023-03-03T03:02:52;99067.44;;;4.64;87.30
70343;BME280;57767;42.068;24.752;2023-03-03T03:03:54;99054.34;;;4.64;87.42
70343;BME280;57767;42.068;24.752;2023-03-03T03:04:55;99055.50;;;4.62;87.04
70343;BME280;57767;42.068;24.752;2023-03-03T03:05:57;99062.19;;;4.73;86.44
70343;BME280;57767;42.068;24.752;2023-03-03T03:06:59;99062.19;;;4.73;87.18
70343;BME280;57767;42.068;24.752;2023-03-03T03:08:01;99059.56;;;4.81;86.34
70343;BME280;57767;42.068;24.752;2023-03-03T03:09:03;99067.41;;;4.89;86.87
70343;BME280;57767;42.068;24.752;2023-03-03T03:10:05;99065.09;;;4.94;86.11
70343;BME280;57767;42.068;24.752;2023-03-03T03:11:07;99063.13;;;4.96;86.21
70343;BME280;57767;42.068;24.752;2023-03-03T03:12:09;99057.22;;;5.02;86.31
70343;BME280;57767;42.068;24.752;2023-03-03T03:13:10;99059.81;;;5.10;86.04
70343;BME280;57767;42.068;24.752;2023-03-03T03:14:13;99050.97;;;5.11;85.46
70343;BME280;57767;42.068;24.752;2023-03-03T03:15:15;99059.00;;;5.18;85.56
70343;BME280;57767;42.068;24.752;2023-03-03T03:16:17;99061.63;;;5.18;84.57
70343;BME280;57767;42.068;24.752;2023-03-03T03:17:19;99049.34;;;5.18;84.56
70343;BME280;57767;42.068;24.752;2023-03-03T03:18:21;99054.91;;;5.15;84.79
70343;BME280;57767;42.068;24.752;2023-03-03T03:19:23;99055.19;;;5.20;84.43
70343;BME280;57767;42.068;24.752;2023-03-03T03:20:24;99062.06;;;5.29;84.73
70343;BME280;57767;42.068;24.752;2023-03-03T03:21:27;99057.94;;;5.35;84.48
70343;BME280;57767;42.068;24.752;2023-03-03T03:22:29;99047.94;;;5.38;nan
70343;BME280;57767;42.068;24.752;2023-03-03T03:23:31;99046.00;;;5.32;83.52
70343;BME280;57767;42.068;24.752;2023-03-03T03:24:32;99041.06;;;5.37;83.22
70343;BME280;57767;42.068;24.752;2023-03-03T03:25:34;99050.88;;;5.44;83.78
70343;BME280;57767;42.068;24.752;2023-03-03T03:26:38;99052.16;;;5.48;83.60
70343;BME280;57767;42.068;24.752;2023-03-03T03:27:40;99051.66;;;5.52;83.31
70343;BME280;57767;42.068;24.752;2023-03-03T03:28:42;99056.41;;;5.49;82.78
70343;BME280;57767;42.068;24.752;2023-03-03T03:29:44;99048.06;;;5.45;82.94
70343;BME280;57767;42.068;24.752;2023-03-03T03:30:46;99054.78;;;5.48;82.61
70343;BME280;57767;42.068;24.752;2023-03-03T03:31:48;99053.78;;;5.49;82.43
70343;BME280;57767;42.068;24.752;2023-03-03T03:32:49;99057.06;;;5.51;82.77
70343;BME280;57767;42.068;24.752;2023-03-03T03:33:51;99047.91;;;5.47;82.77
70343;BME280;57767;42.068;24.752;2023-03-03T03:34:53;99054.44;;;5.51;82.88
70343;BME280;57767;42.068;24.752;2023-03-03T03:35:56;99052.00;;;5.49;83.15
70343;BME280;57767;42.068;24.752;2023-03-03T03:36:58;99050.03;;;5.51;82.66
70343;BME280;57767;42.068;24.752;2023-03-03T03:37:59;99054.09;;;5.54;82.27
70343;BME280;57767;42.068;24.752;2023-03-03T03:39:01;99056.03;;;5.60;82.24
70343;BME280;57767;42.068;24.752;2023-03-03T03:40:06;99056.84;;;5.60;82.17
70343;BME280;57767;42.068;24.752;2023-03-03T03:41:10;99059.13;;;5.63;82.63
70343;BME280;57767;42.068;24.752;2023-03-03T03:42:12;99052.41;;;5.69;82.35
70343;BME280;57767;42.068;24.752;2023-03-03T03:43:13;99056.47;;;5.71;82.11
70343;BME280;57767;42.068;24.752;2023-03-03T03:44:15;99054.66;;;5.72;81.80
70343;BME280;57767;42.068;24.752;2023-03-03T03:45:17;99040.28;;;5.68;81.76
70343;BME280;57767;42.068;24.752;2023-03-03T03:46:19;99051.03;;;5.81;81.50
70343;BME280;57767;42.068;24.752;2023-03-03T03:47:21;99043.63;;;5.85;81.91
70343;BME280;57767;42.068;24.752;2023-03-03T03:48:23;99041.97;;;5.84;81.21
70343;BME280;57767;42.068;24.752;2023-03-03T03:49:25;99041.34;;;5.82;81.28
70343;BME280;57767;42.068;24.752;2023-03-03T03:50:26;99048.03;;;5.84;81.07
70343;BME280;57767;42.068;24.752;2023-03-03T03:51:28;99045.13;;;5.79;80.95
70343;BME280;57767;42.068;24.752;2023-03-03T03:52:30;99041.34;;;5.82;81.07
70343;BME280;57767;42.068;24.752;2023-03-03T03:53:32;99049.66;;;5.85;81.44
70343;BME280;57767;42.068;24.752;2023-03-03T03:54:33;99039.91;;;5.79;81.39
70343;BME280;57767;42.068;24.752;2023-03-03T03:55:35;99045.13;;;5.79;81.32
70343;BME280;57767;42.068;24.752;2023-03-03T03:56:37;99043.97;;;5.82;81.28
70343;BME280;57767;42.068;24.752;2023-03-03T03:57:39;99053.28;;;5.84;81.46
70343;BME280;57767;42.068;24.752;2023-03-03T03:58:41;99052.63;;;5.90;81.69
70343;BME280;57767;42.068;24.752;2023-03-03T03:59:43;99048.50;;;5.88;81.22
70343;BME280;57767;42.068;24.752;2023-03-03T04:00:45;99050.19;;;5.89;81.48
70343;BME280;57767;42.068;24.752;2023-03-03T04:01:47;99052.47;;;5.92;81.62
70343;BME280;57767;42.068;24.752;2023-03-03T04:02:51;99049.50;;;5.95;80.96
70343;BME280;57767;42.068;24.752;2023-03-03T04:03:53;99046.69;;;5.96;81.33
70343;BME280;57767;42.068;24.752;2023-03-03T04:04:54;99051.94;;;5.96;81.32
70343;BME280;57767;42.068;24.752;2023-03-03T04:05:56;99047.88;;;5.94;81.06
70343;BME280;57767;42.068;24.752;2023-03-03T04:06:58;99051.66;;;5.91;81.67
70343;BME280;57767;42.068;24.752;2023-03-03T04:08:00;99047.66;;;5.95;81.80
70343;BME280;57767;42.068;24.752;2023-03-03T04:09:02;99049.03;;;5.91;81.84
70343;BME280;57767;42.068;24.752;2023-03-03T04:10:04;99051.00;;;5.89;81.92
70343;BME280;57767;42.068;24.752;2023-03-03T04:11:06;99055.41;;;5.89;81.90
70343;BME280;57767;42.068;24.752;2023-03-03T04:12:08;99040.66;;;5.88;82.38
70343;BME280;57767;42.068;24.752;2023-03-03T04:13:10;99043.97;;;5.82;82.20
70343;BME280;57767;42.068;24.752;2023-03-03T04:14:12;99046.13;;;5.78;82.35
70343;BME280;57767;42.068;24.752;2023-03-03T04:15:14;99043.84;;;5.75;82.45
70343;BME280;57767;42.068;24.752;2023-03-03T04:16:15;99038.94;;;5.72;82.39
70343;BME280;57767;42.068;24.752;2023-03-03T04:17:19;99042.53;;;5.79;83.23
70343;BME280;57767;42.068;24.752;2023-03-03T04:18:21;99046.47;;;5.75;82.57
70343;BME280;57767;42.068;24.752;2023-03-03T04:19:22;99044.00;;;5.73;83.10
70343;BME280;57767;42.068;24.752;2023-03-03T04:20:24;99038.50;;;5.68;82.91
70343;BME280;57767;42.068;24.752;2023-03-03T04:21:26;99049.78;;;5.69;83.24
70343;BME280;57767;42.068;24.752;2023-03-03T04:22:29;99053.22;;;5.69;83.42
70343;BME280;57767;42.068;24.752;2023-03-03T04:23:34;99042.91;;;5.68;83.72
70343;BME280;57767;42.068;24.752;2023-03-03T04:24:36;99047.63;;;5.72;83.87
70343;BME280;57767;42.068;24.752;2023-03-03T04:25:37;99052.19;;;5.70;83.56
70343;BME280;57767;42.068;24.752;2023-03-03T04:26:39;99046.34;;;5.68;83.67
70343;BME280;57767;42.068;24.752;2023-03-03T04:27:41;99045.97;;;5.71;83.83
70343;BME280;57767;42.068;24.752;2023-03-03T04:28:44;99046.47;;;5.75;83.45
70343;BME280;57767;42.068;24.752;2023-03-03T04:29:46;99043.84;;;5.75;84.11
70343;BME280;57767;42.068;24.752;2023-03-03T04:30:48;99042.69;;;5.78;83.78
70343;BME280;57767;42.068;24.752;2023-03-03T04:31:49;99031.44;;;5.69;83.75
70343;BME280;57767;42.068;24.752;2023-03-03T04:32:51;99047.75;;;5.79;84.22
70343;BME280;57767;42.068;24.752;2023-03-03T04:33:53;99030.44;;;5.70;83.68
70343;BME280;57767;42.068;24.752;2023-03-03T04:34:55;99048.03;;;5.84;84.24
70343;BME280;57767;42.068;24.752;2023-03-03T04:36:08;99035.31;;;5.73;83.72
70343;BME280;57767;42.068;24.752;2023-03-03T04:37:10;99031.44;;;5.69;84.01
70343;BME280;57767;42.068;24.752;2023-03-03T04:38:12;99043.19;;;5.73;84.02
70343;BME280;57767;42.068;24.752;2023-03-03T04:39:13;99040.56;;;5.73;84.65
70343;BME280;57767;42.068;24.752;2023-03-03T04:40:15;99045.47;;;5.76;84.33
70343;BME280;57767;42.068;24.752;2023-03-03T04:41:18;99040.72;;;5.80;84.76
70343;BME280;57767;42.068;24.752;2023-03-03T04:42:20;99046.28;;;5.76;84.56
70343;BME280;57767;42.068;24.752;2023-03-03T04:43:22;99044.00;;;5.73;84.71
70343;BME280;57767;42.068;24.752;2023-03-03T04:44:24;99042.44;;;5.64;84.46
70343;BME280;57767;42.068;24.752;2023-03-03T04:45:25;99038.28;;;5.70;84.75
70343;BME280;57767;42.068;24.752;2023-03-03T04:46:27;99044.81;;;5.74;85.02
70343;BME280;57767;42.068;24.752;2023-03-03T04:47:29;99050.13;;;5.66;85.25
70343;BME280;57767;42.068;24.752;2023-03-03T04:48:32;99048.66;;;5.63;84.95
70343;BME280;57767;42.068;24.752;2023-03-03T04:49:34;99047.00;;;5.62;85.04
70343;BME280;57767;42.068;24.752;2023-03-03T04:50:36;99040.69;;;5.57;85.69
70343;BME280;57767;42.068;24.752;2023-03-03T04:51:38;99042.28;;;5.58;85.44
70343;BME280;57767;42.068;24.752;2023-03-03T04:52:40;99035.72;;;5.62;85.22
70343;BME280;57767;42.068;24.752;2023-03-03T04:53:41;99040.16;;;5.61;85.51
70343;BME280;57767;42.068;24.752;2023-03-03T04:54:43;99043.91;;;5.59;85.88
70343;BME280;57767;42.068;24.752;2023-03-03T04:55:45;99049.63;;;5.62;85.20
70343;BME280;57767;42.068;24.752;2023-03-03T04:56:47;99040.69;;;5.57;85.70
70343;BME280;57767;42.068;24.752;2023-03-03T04:57:48;99036.22;;;5.57;85.92
70343;BME280;57767;42.068;24.752;2023-03-03T04:58:50;99048.00;;;5.61;85.91
70343;BME280;57767;42.068;24.752;2023-03-03T04:59:52;99045.38;;;5.61;85.55
70343;BME280;57767;42.068;24.752;2023-03-03T05:00:56;99045.22;;;5.63;85.55
70343;BME280;57767;42.068;24.752;2023-03-03T05:01:58;99043.91;;;5.59;85.69
70343;BME280;57767;42.068;24.752;2023-03-03T05:02:59;99039.84;;;5.56;85.81
70343;BME280;57767;42.068;24.752;2023-03-03T05:04:02;99048.16;;;5.60;85.54
70343;BME280;57767;42.068;24.752;2023-03-03T05:05:05;99045.59;;;5.52;86.19
70343;BME280;57767;42.068;24.752;2023-03-03T05:06:07;99054.50;;;5.43;86.02
70343;BME280;57767;42.068;24.752;2023-03-03T05:07:08;99044.34;;;5.39;86.76
70343;BME280;57767;42.068;24.752;2023-03-03T05:08:10;99054.81;;;5.39;86.45
70343;BME280;57767;42.068;24.752;2023-03-03T05:09:12;99050.06;;;5.35;86.79
70343;BME280;57767;42.068;24.752;2023-03-03T05:10:14;99052.03;;;5.33;86.76
70343;BME280;57767;42.068;24.752;2023-03-03T05:11:15;99048.28;;;5.35;86.90
70343;BME280;57767;42.068;24.752;2023-03-03T05:12:17;99049.09;;;5.36;86.95
70343;BME280;57767;42.068;24.752;2023-03-03T05:13:19;99047.94;;;5.38;87.38
70343;BME280;57767;42.068;24.752;2023-03-03T05:14:21;99053.06;;;5.24;87.50
70343;BME280;57767;42.068;24.752;2023-03-03T05:15:23;99051.13;;;5.18;87.38
70343;BME280;57767;42.068;24.752;2023-03-03T05:16:25;99049.81;;;5.22;87.43
70343;BME280;57767;42.068;24.752;2023-03-03T05:17:27;99057.81;;;5.28;87.70
70343;BME280;57767;42.068;24.752;2023-03-03T05:18:28;99052.91;;;5.25;87.53
70343;BME280;57767;42.068;24.752;2023-03-03T05:19:30;99049.63;;;5.23;88.48
70343;BME280;57767;42.068;24.752;2023-03-03T05:20:32;99045.91;;;5.18;87.97
70343;BME280;57767;42.068;24.752;2023-03-03T05:21:34;99055.19;;;5.20;88.00
70343;BME280;57767;42.068;24.752;2023-03-03T05:22:38;99060.44;;;5.20;88.80
70343;BME280;57767;42.068;24.752;2023-03-03T05:23:39;99063.38;;;5.25;88.34
70343;BME280;57767;42.068;24.752;2023-03-03T05:24:41;99052.56;;;5.28;88.30
70343;BME280;57767;42.068;24.752;2023-03-03T05:25:46;99050.28;;;5.25;88.30
70343;BME280;57767;42.068;24.752;2023-03-03T05:26:48;99038.50;;;5.21;88.22
70343;BME280;57767;42.068;24.752;2023-03-03T05:27:50;99056.16;;;5.27;88.56
70343;BME280;57767;42.068;24.752;2023-03-03T05:28:52;99056.16;;;5.27;88.15
70343;BME280;57767;42.068;24.752;2023-03-03T05:29:53;99053.84;;;5.32;88.14
70343;BME280;57767;42.068;24.752;2023-03-03T05:30:55;99053.84;;;5.32;88.97
70343;BME280;57767;42.068;24.752;2023-03-03T05:31:57;99059.09;;;5.32;88.96
70343;BME280;57767;42.068;24.752;2023-03-03T05:32:59;99057.28;;;5.33;88.89
70343;BME280;57767;42.068;24.752;2023-03-03T05:34:01;99060.59;;;5.27;88.22
70343;BME280;57767;42.068;24.752;2023-03-03T05:35:04;99060.09;;;5.31;88.52
70343;BME280;57767;42.068;24.752;2023-03-03T05:36:06;99061.91;;;5.31;89.31
70343;BME280;57767;42.068;24.752;2023-03-03T05:37:08;99051.56;;;5.37;88.26
70343;BME280;57767;42.068;24.752;2023-03-03T05:38:10;99047.00;;;5.31;88.52
70343;BME280;57767;42.068;24.752;2023-03-03T05:39:12;99048.75;;;5.39;88.98
70343;BME280;57767;42.068;24.752;2023-03-03T05:40:14;99052.84;;;5.42;88.68
70343;BME280;57767;42.068;24.752;2023-03-03T05:41:16;99057.41;;;5.48;88.17
70343;BME280;57767;42.068;24.752;2023-03-03T05:42:17;99055.75;;;5.47;88.26
70343;BME280;57767;42.068;24.752;2023-03-03T05:43:19;99047.63;;;5.42;88.60
70343;BME280;57767;42.068;24.752;2023-03-03T05:44:21;99052.84;;;5.42;88.59
70343;BME280;57767;42.068;24.752;2023-03-03T05:45:23;99053.00;;;5.40;88.63
70343;BME280;57767;42.068;24.752;2023-03-03T05:46:25;99057.44;;;5.39;88.43
70343;BME280;57767;42.068;24.752;2023-03-03T05:47:28;99067.41;;;5.44;88.85
70343;BME280;57767;42.068;24.752;2023-03-03T05:48:30;99058.75;;;5.44;88.59
70343;BME280;57767;42.068;24.752;2023-03-03T05:49:31;99058.09;;;5.42;88.44
70343;BME280;57767;42.068;24.752;2023-03-03T05:50:33;99059.72;;;5.43;89.17
70343;BME280;57767;42.068;24.752;2023-03-03T05:51:35;99069.16;;;5.52;89.26
70343;BME280;57767;42.068;24.752;2023-03-03T05:52:37;99064.44;;;5.47;88.93